sensor_id;sensor_type;location;lat;lon;timestamp;P1;durP1;ratioP1;P2;durP2;ratioP2
20772;SDS011;10546;50.674;4.616;2023-04-25T05:26:13;22.00;;;5.87;;
20772;SDS011;10546;50.674;4.616;2023-04-25T05:28:41;19.93;;;5.97;;
20772;SDS011;10546;50.674;4.616;2023-04-25T05:31:07;12.30;;;5.00;;
20772;SDS011;10546;50.674;4.616;2023-04-25T05:33:34;21.77;;;5.13;;
20772;SDS011;10546;50.674;4.616;2023-04-25T05:36:00;17.43;;;5.80;;
20772;SDS011;10546;50.674;4.616;2023-04-25T05:38:26;24.03;;;6.53;;
20772;SDS011;10546;50.674;4.616;2023-04-25T05:40:52;20.97;;;5.67;;
20772;SDS011;10546;50.674;4.616;2023-04-25T05:43:18;23.60;;;5.77;;
20772;SDS011;10546;50.674;4.616;2023-04-25T05:45:44;22.67;;;6.17;;
20772;SDS011;10546;50.674;4.616;2023-04-25T05:48:10;15.80;;;5.60;;
20772;SDS011;10546;50.674;4.616;2023-04-25T05:50:35;21.93;;;5.87;;
20772;SDS011;10546;50.674;4.616;2023-04-25T05:53:01;20.30;;;5.47;;
20772;SDS011;10546;50.674;4.616;2023-04-25T05:55:27;18.57;;;6.83;;
20772;SDS011;10546;50.674;4.616;2023-04-25T05:57:53;19.43;;;5.93;;
20772;SDS011;10546;50.674;4.616;2023-04-25T06:00:18;20.73;;;5.47;;
20772;SDS011;10546;50.674;4.616;2023-04-25T06:02:45;21.53;;;6.00;;
20772;SDS011;10546;50.674;4.616;2023-04-25T06:05:10;23.30;;;6.00;;
20772;SDS011;10546;50.674;4.616;2023-04-25T06:07:36;23.60;;;6.43;;
20772;SDS011;10546;50.674;4.616;2023-04-25T06:10:02;22.63;;;6.57;;
20772;SDS011;10546;50.674;4.616;2023-04-25T06:12:31;28.90;;;5.80;;
20772;SDS011;10546;50.674;4.616;2023-04-25T06:14:58;17.43;;;5.67;;
20772;SDS011;10546;50.674;4.616;2023-04-25T06:17:23;24.03;;;6.03;;
20772;SDS011;10546;50.674;4.616;2023-04-25T06:19:49;18.53;;;6.20;;
20772;SDS011;10546;50.674;4.616;2023-04-25T06:22:15;26.60;;;6.90;;
20772;SDS011;10546;50.674;4.616;2023-04-25T06:24:40;18.57;;;6.47;;
20772;SDS011;10546;50.674;4.616;2023-04-25T06:27:06;19.00;;;6.57;;
20772;SDS011;10546;50.674;4.616;2023-04-25T06:29:32;19.47;;;6.27;;
20772;SDS011;10546;50.674;4.616;2023-04-25T06:31:57;21.97;;;6.27;;
20772;SDS011;10546;50.674;4.616;2023-04-25T06:34:23;25.33;;;5.93;;
20772;SDS011;10546;50.674;4.616;2023-04-25T06:36:52;18.70;;;6.00;;
20772;SDS011;10546;50.674;4.616;2023-04-25T06:39:17;22.80;;;6.30;;
20772;SDS011;10546;50.674;4.616;2023-04-25T06:41:45;16.10;;;6.17;;
20772;SDS011;10546;50.674;4.616;2023-04-25T06:44:10;19.63;;;6.50;;
20772;SDS011;10546;50.674;4.616;2023-04-25T06:46:36;16.20;;;5.10;;
20772;SDS011;10546;50.674;4.616;2023-04-25T06:49:02;24.47;;;6.37;;
20772;SDS011;10546;50.674;4.616;2023-04-25T06:51:28;19.17;;;6.40;;
20772;SDS011;10546;50.674;4.616;2023-04-25T06:53:55;19.37;;;5.87;;
20772;SDS011;10546;50.674;4.616;2023-04-25T06:56:21;20.73;;;5.67;;
20772;SDS011;10546;50.674;4.616;2023-04-25T06:58:46;20.67;;;5.67;;
20772;SDS011;10546;50.674;4.616;2023-04-25T07:01:12;19.73;;;6.30;;
20772;SDS011;10546;50.674;4.616;2023-04-25T07:03:37;20.80;;;5.87;;
20772;SDS011;10546;50.674;4.616;2023-04-25T07:06:03;25.53;;;5.70;;
20772;SDS011;10546;50.674;4.616;2023-04-25T07:08:29;15.53;;;6.80;;
20772;SDS011;10546;50.674;4.616;2023-04-25T07:10:55;19.17;;;6.23;;
20772;SDS011;10546;50.674;4.616;2023-04-25T07:13:20;24.53;;;6.73;;
20772;SDS011;10546;50.674;4.616;2023-04-25T07:15:46;22.30;;;6.80;;
20772;SDS011;10546;50.674;4.616;2023-04-25T07:18:13;22.63;;;6.00;;
20772;SDS011;10546;50.674;4.616;2023-04-25T07:20:39;20.53;;;6.93;;
20772;SDS011;10546;50.674;4.616;2023-04-25T07:23:04;23.77;;;6.13;;
20772;SDS011;10546;50.674;4.616;2023-04-25T07:25:30;22.03;;;5.80;;
20772;SDS011;10546;50.674;4.616;2023-04-25T07:27:56;20.77;;;5.90;;
20772;SDS011;10546;50.674;4.616;2023-04-25T07:30:21;19.10;;;5.80;;
20772;SDS011;10546;50.674;4.616;2023-04-25T07:32:48;21.57;;;6.30;;
20772;SDS011;10546;50.674;4.616;2023-04-25T07:35:14;15.93;;;6.30;;
20772;SDS011;10546;50.674;4.616;2023-04-25T07:37:40;20.63;;;6.70;;
20772;SDS011;10546;50.674;4.616;2023-04-25T07:40:05;23.87;;;6.37;;
20772;SDS011;10546;50.674;4.616;2023-04-25T07:42:32;25.50;;;6.20;;
20772;SDS011;10546;50.674;4.616;2023-04-25T07:44:58;22.67;;;7.37;;
20772;SDS011;10546;50.674;4.616;2023-04-25T07:47:24;23.53;;;7.33;;
20772;SDS011;10546;50.674;4.616;2023-04-25T07:49:49;19.83;;;6.73;;
20772;SDS011;10546;50.674;4.616;2023-04-25T07:52:15;24.07;;;6.70;;
20772;SDS011;10546;50.674;4.616;2023-04-25T07:54:40;23.10;;;6.47;;
20772;SDS011;10546;50.674;4.616;2023-04-25T07:57:06;24.73;;;5.80;;
20772;SDS011;10546;50.674;4.616;2023-04-25T07:59:32;20.23;;;5.97;;
20772;SDS011;10546;50.674;4.616;2023-04-25T08:01:58;19.10;;;5.43;;
20772;SDS011;10546;50.674;4.616;2023-04-25T08:04:24;15.40;;;5.30;;
20772;SDS011;10546;50.674;4.616;2023-04-25T08:06:53;16.10;;;5.73;;
20772;SDS011;10546;50.674;4.616;2023-04-25T08:09:19;25.83;;;5.83;;
20772;SDS011;10546;50.674;4.616;2023-04-25T08:11:45;27.83;;;5.40;;
20772;SDS011;10546;50.674;4.616;2023-04-25T08:14:11;22.30;;;6.17;;
20772;SDS011;10546;50.674;4.616;2023-04-25T08:16:38;17.93;;;5.67;;
20772;SDS011;10546;50.674;4.616;2023-04-25T08:19:04;18.53;;;6.50;;
20772;SDS011;10546;50.674;4.616;2023-04-25T08:21:30;22.47;;;6.83;;
20772;SDS011;10546;50.674;4.616;2023-04-25T08:23:56;21.50;;;6.27;;
20772;SDS011;10546;50.674;4.616;2023-04-25T08:26:23;23.17;;;6.47;;
20772;SDS011;10546;50.674;4.616;2023-04-25T08:28:49;23.33;;;7.03;;
20772;SDS011;10546;50.674;4.616;2023-04-25T08:31:15;21.07;;;6.57;;
20772;SDS011;10546;50.674;4.616;2023-04-25T08:33:42;20.50;;;7.33;;
20772;SDS011;10546;50.674;4.616;2023-04-25T08:36:08;19.40;;;6.57;;
20772;SDS011;10546;50.674;4.616;2023-04-25T08:38:34;22.47;;;5.97;;
20772;SDS011;10546;50.674;4.616;2023-04-25T08:41:00;19.00;;;6.03;;
20772;SDS011;10546;50.674;4.616;2023-04-25T08:43:28;16.53;;;5.30;;
20772;SDS011;10546;50.674;4.616;2023-04-25T08:45:57;16.00;;;5.37;;
20772;SDS011;10546;50.674;4.616;2023-04-25T08:48:25;21.47;;;6.10;;
20772;SDS011;10546;50.674;4.616;2023-04-25T08:50:53;16.97;;;5.37;;
20772;SDS011;10546;50.674;4.616;2023-04-25T08:53:27;14.97;;;5.43;;
20772;SDS011;10546;50.674;4.616;2023-04-25T08:55:55;14.80;;;5.53;;
20772;SDS011;10546;50.674;4.616;2023-04-25T08:58:22;14.57;;;4.70;;
20772;SDS011;10546;50.674;4.616;2023-04-25T09:00:48;14.57;;;5.30;;
20772;SDS011;10546;50.674;4.616;2023-04-25T09:03:16;14.00;;;4.53;;
20772;SDS011;10546;50.674;4.616;2023-04-25T09:05:42;13.50;;;4.03;;
20772;SDS011;10546;50.674;4.616;2023-04-25T09:08:08;17.13;;;4.30;;
20772;SDS011;10546;50.674;4.616;2023-04-25T09:10:34;14.50;;;4.57;;
20772;SDS011;10546;50.674;4.616;2023-04-25T09:13:07;14.57;;;5.37;;
20772;SDS011;10546;50.674;4.616;2023-04-25T09:15:46;22.63;;;4.27;;
20772;SDS011;10546;50.674;4.616;2023-04-25T09:18:23;14.63;;;3.87;;
20772;SDS011;10546;50.674;4.616;2023-04-25T09:21:13;16.87;;;3.67;;
20772;SDS011;10546;50.674;4.616;2023-04-25T09:23:45;11.20;;;4.20;;
20772;SDS011;10546;50.674;4.616;2023-04-25T09:26:16;14.07;;;4.30;;
20772;SDS011;10546;50.674;4.616;2023-04-25T09:28:43;8.57;;;3.93;;
20772;SDS011;10546;50.674;4.616;2023-04-25T09:31:12;13.27;;;4.50;;
20772;SDS011;10546;50.674;4.616;2023-04-25T09:33:45;14.15;;;4.40;;
20772;SDS011;10546;50.674;4.616;2023-04-25T09:36:11;15.18;;;4.03;;
20772;SDS011;10546;50.674;4.616;2023-04-25T09:38:42;16.33;;;4.38;;
20772;SDS011;10546;50.674;4.616;2023-04-25T09:41:09;14.15;;;3.75;;
20772;SDS011;10546;50.674;4.616;2023-04-25T09:43:36;11.18;;;3.67;;
20772;SDS011;10546;50.674;4.616;2023-04-25T09:46:03;12.82;;;4.13;;
20772;SDS011;10546;50.674;4.616;2023-04-25T09:48:33;8.50;;;3.45;;
20772;SDS011;10546;50.674;4.616;2023-04-25T09:53:35;11.77;;;4.10;;
20772;SDS011;10546;50.674;4.616;2023-04-25T09:56:06;11.57;;;4.00;;
20772;SDS011;10546;50.674;4.616;2023-04-25T09:58:33;9.48;;;3.97;;
20772;SDS011;10546;50.674;4.616;2023-04-25T10:01:01;12.45;;;4.35;;
20772;SDS011;10546;50.674;4.616;2023-04-25T10:03:32;13.88;;;5.35;;
20772;SDS011;10546;50.674;4.616;2023-04-25T10:06:03;14.47;;;4.47;;
20772;SDS011;10546;50.674;4.616;2023-04-25T10:08:34;10.70;;;4.00;;
20772;SDS011;10546;50.674;4.616;2023-04-25T10:11:05;11.13;;;4.23;;
20772;SDS011;10546;50.674;4.616;2023-04-25T10:13:32;12.30;;;3.83;;
20772;SDS011;10546;50.674;4.616;2023-04-25T10:16:00;10.73;;;3.93;;
20772;SDS011;10546;50.674;4.616;2023-04-25T10:18:27;11.73;;;4.40;;
20772;SDS011;10546;50.674;4.616;2023-04-25T10:20:57;10.03;;;3.80;;
20772;SDS011;10546;50.674;4.616;2023-04-25T10:23:25;9.93;;;4.07;;
20772;SDS011;10546;50.674;4.616;2023-04-25T10:25:51;8.67;;;3.47;;
20772;SDS011;10546;50.674;4.616;2023-04-25T10:28:18;13.93;;;4.10;;
20772;SDS011;10546;50.674;4.616;2023-04-25T10:30:58;15.57;;;3.97;;
20772;SDS011;10546;50.674;4.616;2023-04-25T10:33:38;16.90;;;3.80;;
20772;SDS011;10546;50.674;4.616;2023-04-25T10:36:14;14.07;;;3.87;;
20772;SDS011;10546;50.674;4.616;2023-04-25T10:38:42;16.07;;;4.13;;
20772;SDS011;10546;50.674;4.616;2023-04-25T10:41:09;17.60;;;4.47;;
20772;SDS011;10546;50.674;4.616;2023-04-25T10:43:37;19.23;;;4.47;;
20772;SDS011;10546;50.674;4.616;2023-04-25T10:46:24;13.30;;;4.00;;
20772;SDS011;10546;50.674;4.616;2023-04-25T10:48:52;11.93;;;4.13;;
20772;SDS011;10546;50.674;4.616;2023-04-25T10:51:22;18.73;;;5.03;;
20772;SDS011;10546;50.674;4.616;2023-04-25T10:56:30;11.83;;;3.90;;
20772;SDS011;10546;50.674;4.616;2023-04-25T10:59:06;11.57;;;3.53;;
20772;SDS011;10546;50.674;4.616;2023-04-25T11:01:38;10.13;;;3.60;;
20772;SDS011;10546;50.674;4.616;2023-04-25T11:04:21;10.23;;;3.33;;
20772;SDS011;10546;50.674;4.616;2023-04-25T11:09:53;11.60;;;2.83;;
20772;SDS011;10546;50.674;4.616;2023-04-25T11:12:19;14.00;;;3.45;;
20772;SDS011;10546;50.674;4.616;2023-04-25T11:14:45;10.40;;;3.63;;
20772;SDS011;10546;50.674;4.616;2023-04-25T11:17:10;11.02;;;4.32;;
20772;SDS011;10546;50.674;4.616;2023-04-25T11:19:36;21.17;;;9.17;;
20772;SDS011;10546;50.674;4.616;2023-04-25T11:22:02;10.60;;;4.60;;
20772;SDS011;10546;50.674;4.616;2023-04-25T11:24:28;13.10;;;4.80;;
20772;SDS011;10546;50.674;4.616;2023-04-25T11:26:55;13.75;;;3.80;;
20772;SDS011;10546;50.674;4.616;2023-04-25T11:29:22;10.70;;;3.53;;
20772;SDS011;10546;50.674;4.616;2023-04-25T11:31:48;18.27;;;6.25;;
20772;SDS011;10546;50.674;4.616;2023-04-25T11:34:20;10.23;;;3.80;;
20772;SDS011;10546;50.674;4.616;2023-04-25T11:36:45;11.55;;;2.83;;
20772;SDS011;10546;50.674;4.616;2023-04-25T11:39:11;13.50;;;2.90;;
20772;SDS011;10546;50.674;4.616;2023-04-25T11:41:38;12.20;;;2.40;;
20772;SDS011;10546;50.674;4.616;2023-04-25T11:44:03;7.63;;;2.33;;
20772;SDS011;10546;50.674;4.616;2023-04-25T11:46:30;11.63;;;3.83;;
20772;SDS011;10546;50.674;4.616;2023-04-25T11:48:59;10.33;;;5.70;;
20772;SDS011;10546;50.674;4.616;2023-04-25T11:51:24;6.80;;;2.20;;
20772;SDS011;10546;50.674;4.616;2023-04-25T11:53:51;9.53;;;2.43;;
20772;SDS011;10546;50.674;4.616;2023-04-25T11:56:17;9.73;;;2.80;;
20772;SDS011;10546;50.674;4.616;2023-04-25T12:01:39;7.47;;;3.20;;
20772;SDS011;10546;50.674;4.616;2023-04-25T12:04:12;8.87;;;2.40;;
20772;SDS011;10546;50.674;4.616;2023-04-25T12:06:43;8.53;;;3.37;;
20772;SDS011;10546;50.674;4.616;2023-04-25T12:09:14;7.00;;;2.63;;
20772;SDS011;10546;50.674;4.616;2023-04-25T12:11:43;10.63;;;3.00;;
20772;SDS011;10546;50.674;4.616;2023-04-25T12:14:10;8.17;;;3.00;;
20772;SDS011;10546;50.674;4.616;2023-04-25T12:16:41;9.07;;;2.97;;
20772;SDS011;10546;50.674;4.616;2023-04-25T12:19:14;5.60;;;2.80;;
20772;SDS011;10546;50.674;4.616;2023-04-25T12:21:41;6.70;;;3.17;;
20772;SDS011;10546;50.674;4.616;2023-04-25T12:26:51;8.87;;;3.20;;
20772;SDS011;10546;50.674;4.616;2023-04-25T12:29:29;8.33;;;3.70;;
20772;SDS011;10546;50.674;4.616;2023-04-25T12:31:56;11.00;;;3.03;;
20772;SDS011;10546;50.674;4.616;2023-04-25T12:34:22;8.77;;;2.30;;
20772;SDS011;10546;50.674;4.616;2023-04-25T12:36:49;9.43;;;2.50;;
20772;SDS011;10546;50.674;4.616;2023-04-25T12:39:19;8.00;;;2.70;;
20772;SDS011;10546;50.674;4.616;2023-04-25T12:41:52;12.30;;;2.93;;
20772;SDS011;10546;50.674;4.616;2023-04-25T12:44:21;6.70;;;2.57;;
20772;SDS011;10546;50.674;4.616;2023-04-25T12:46:47;9.55;;;4.07;;
20772;SDS011;10546;50.674;4.616;2023-04-25T12:49:13;8.13;;;2.30;;
20772;SDS011;10546;50.674;4.616;2023-04-25T12:51:39;7.60;;;2.30;;
20772;SDS011;10546;50.674;4.616;2023-04-25T12:54:05;15.20;;;7.00;;
20772;SDS011;10546;50.674;4.616;2023-04-25T12:56:33;4.90;;;1.73;;
20772;SDS011;10546;50.674;4.616;2023-04-25T12:59:00;9.97;;;4.53;;
20772;SDS011;10546;50.674;4.616;2023-04-25T13:01:27;9.07;;;2.60;;
20772;SDS011;10546;50.674;4.616;2023-04-25T13:03:53;9.53;;;2.33;;
20772;SDS011;10546;50.674;4.616;2023-04-25T13:06:19;4.07;;;1.80;;
20772;SDS011;10546;50.674;4.616;2023-04-25T13:08:45;9.27;;;2.20;;
20772;SDS011;10546;50.674;4.616;2023-04-25T13:11:11;4.80;;;2.57;;
20772;SDS011;10546;50.674;4.616;2023-04-25T13:13:39;4.13;;;2.30;;
20772;SDS011;10546;50.674;4.616;2023-04-25T13:16:05;8.63;;;2.17;;
20772;SDS011;10546;50.674;4.616;2023-04-25T13:18:32;6.53;;;2.60;;
20772;SDS011;10546;50.674;4.616;2023-04-25T13:20:58;8.70;;;3.80;;
20772;SDS011;10546;50.674;4.616;2023-04-25T13:23:25;5.87;;;3.07;;
20772;SDS011;10546;50.674;4.616;2023-04-25T13:25:53;5.03;;;1.70;;
20772;SDS011;10546;50.674;4.616;2023-04-25T13:28:20;4.67;;;1.70;;
20772;SDS011;10546;50.674;4.616;2023-04-25T13:30:46;5.33;;;1.77;;
20772;SDS011;10546;50.674;4.616;2023-04-25T13:33:13;6.37;;;1.80;;
20772;SDS011;10546;50.674;4.616;2023-04-25T13:35:39;5.47;;;1.50;;
20772;SDS011;10546;50.674;4.616;2023-04-25T13:38:05;4.80;;;1.67;;
20772;SDS011;10546;50.674;4.616;2023-04-25T13:40:31;3.10;;;1.40;;
20772;SDS011;10546;50.674;4.616;2023-04-25T13:42:57;4.80;;;1.80;;
20772;SDS011;10546;50.674;4.616;2023-04-25T13:45:23;3.97;;;1.40;;
20772;SDS011;10546;50.674;4.616;2023-04-25T13:47:48;3.30;;;1.37;;
20772;SDS011;10546;50.674;4.616;2023-04-25T13:50:14;4.53;;;1.40;;
20772;SDS011;10546;50.674;4.616;2023-04-25T13:52:41;2.67;;;1.47;;
20772;SDS011;10546;50.674;4.616;2023-04-25T13:55:07;5.40;;;1.80;;
20772;SDS011;10546;50.674;4.616;2023-04-25T13:57:33;4.27;;;1.63;;
20772;SDS011;10546;50.674;4.616;2023-04-25T13:59:59;44.17;;;18.17;;
20772;SDS011;10546;50.674;4.616;2023-04-25T14:02:29;7.37;;;1.57;;
20772;SDS011;10546;50.674;4.616;2023-04-25T14:04:55;5.03;;;2.00;;
20772;SDS011;10546;50.674;4.616;2023-04-25T14:07:21;5.00;;;1.60;;
20772;SDS011;10546;50.674;4.616;2023-04-25T14:09:47;7.33;;;1.83;;
20772;SDS011;10546;50.674;4.616;2023-04-25T14:12:12;6.50;;;1.80;;
20772;SDS011;10546;50.674;4.616;2023-04-25T14:14:38;3.60;;;1.90;;
20772;SDS011;10546;50.674;4.616;2023-04-25T14:17:03;6.63;;;2.00;;
20772;SDS011;10546;50.674;4.616;2023-04-25T14:19:30;7.00;;;1.80;;
20772;SDS011;10546;50.674;4.616;2023-04-25T14:21:55;3.87;;;1.80;;
20772;SDS011;10546;50.674;4.616;2023-04-25T14:24:21;4.47;;;2.07;;
20772;SDS011;10546;50.674;4.616;2023-04-25T14:26:47;3.87;;;1.57;;
20772;SDS011;10546;50.674;4.616;2023-04-25T14:29:12;8.37;;;1.87;;
20772;SDS011;10546;50.674;4.616;2023-04-25T14:31:38;6.57;;;2.00;;
20772;SDS011;10546;50.674;4.616;2023-04-25T14:34:05;8.43;;;2.17;;
20772;SDS011;10546;50.674;4.616;2023-04-25T14:36:31;6.73;;;2.03;;
20772;SDS011;10546;50.674;4.616;2023-04-25T14:38:57;6.23;;;1.80;;
20772;SDS011;10546;50.674;4.616;2023-04-25T14:41:23;7.07;;;1.90;;
20772;SDS011;10546;50.674;4.616;2023-04-25T14:43:50;4.17;;;1.70;;
20772;SDS011;10546;50.674;4.616;2023-04-25T14:46:15;6.87;;;1.90;;
20772;SDS011;10546;50.674;4.616;2023-04-25T14:48:41;7.87;;;1.77;;
20772;SDS011;10546;50.674;4.616;2023-04-25T14:51:07;4.60;;;1.60;;
20772;SDS011;10546;50.674;4.616;2023-04-25T14:53:33;5.40;;;1.87;;
20772;SDS011;10546;50.674;4.616;2023-04-25T14:55:59;3.90;;;1.47;;
20772;SDS011;10546;50.674;4.616;2023-04-25T14:58:24;5.07;;;1.93;;
20772;SDS011;10546;50.674;4.616;2023-04-25T15:00:50;6.70;;;1.70;;
20772;SDS011;10546;50.674;4.616;2023-04-25T15:03:16;7.97;;;1.80;;
20772;SDS011;10546;50.674;4.616;2023-04-25T15:05:42;7.03;;;2.07;;
20772;SDS011;10546;50.674;4.616;2023-04-25T15:08:08;8.50;;;1.80;;
20772;SDS011;10546;50.674;4.616;2023-04-25T15:10:35;9.43;;;1.67;;
20772;SDS011;10546;50.674;4.616;2023-04-25T15:13:01;4.43;;;1.63;;
20772;SDS011;10546;50.674;4.616;2023-04-25T15:15:28;4.13;;;1.40;;
20772;SDS011;10546;50.674;4.616;2023-04-25T15:17:53;3.87;;;1.70;;
20772;SDS011;10546;50.674;4.616;2023-04-25T15:20:20;4.53;;;1.50;;
20772;SDS011;10546;50.674;4.616;2023-04-25T15:22:46;6.23;;;1.93;;
20772;SDS011;10546;50.674;4.616;2023-04-25T15:25:13;5.23;;;1.80;;
20772;SDS011;10546;50.674;4.616;2023-04-25T15:27:40;6.20;;;2.37;;
20772;SDS011;10546;50.674;4.616;2023-04-25T15:30:08;6.07;;;2.00;;
20772;SDS011;10546;50.674;4.616;2023-04-25T15:32:40;8.83;;;1.90;;
20772;SDS011;10546;50.674;4.616;2023-04-25T15:35:09;6.43;;;1.70;;
20772;SDS011;10546;50.674;4.616;2023-04-25T15:37:36;4.20;;;2.10;;
20772;SDS011;10546;50.674;4.616;2023-04-25T15:40:03;7.90;;;2.43;;
20772;SDS011;10546;50.674;4.616;2023-04-25T15:42:34;6.30;;;2.73;;
20772;SDS011;10546;50.674;4.616;2023-04-25T15:45:01;35.33;;;12.00;;
20772;SDS011;10546;50.674;4.616;2023-04-25T15:47:28;13.63;;;4.87;;
20772;SDS011;10546;50.674;4.616;2023-04-25T15:49:54;10.20;;;5.30;;
20772;SDS011;10546;50.674;4.616;2023-04-25T15:52:19;3.50;;;1.80;;
20772;SDS011;10546;50.674;4.616;2023-04-25T15:54:46;5.57;;;1.90;;
20772;SDS011;10546;50.674;4.616;2023-04-25T15:57:12;7.57;;;1.97;;
20772;SDS011;10546;50.674;4.616;2023-04-25T15:59:38;5.87;;;2.03;;
20772;SDS011;10546;50.674;4.616;2023-04-25T16:02:03;3.10;;;1.63;;
20772;SDS011;10546;50.674;4.616;2023-04-25T16:04:29;7.77;;;2.37;;
20772;SDS011;10546;50.674;4.616;2023-04-25T16:06:59;8.27;;;2.37;;
20772;SDS011;10546;50.674;4.616;2023-04-25T16:09:25;5.70;;;2.10;;
20772;SDS011;10546;50.674;4.616;2023-04-25T16:11:51;8.13;;;3.03;;
20772;SDS011;10546;50.674;4.616;2023-04-25T16:14:17;6.47;;;1.97;;
20772;SDS011;10546;50.674;4.616;2023-04-25T16:16:43;7.87;;;2.40;;
20772;SDS011;10546;50.674;4.616;2023-04-25T16:19:09;6.73;;;2.53;;
20772;SDS011;10546;50.674;4.616;2023-04-25T16:21:35;13.93;;;4.53;;
20772;SDS011;10546;50.674;4.616;2023-04-25T16:24:00;9.33;;;2.47;;
20772;SDS011;10546;50.674;4.616;2023-04-25T16:26:26;4.27;;;1.80;;
20772;SDS011;10546;50.674;4.616;2023-04-25T16:28:52;6.73;;;2.50;;
20772;SDS011;10546;50.674;4.616;2023-04-25T16:31:17;10.90;;;3.03;;
20772;SDS011;10546;50.674;4.616;2023-04-25T16:33:43;7.63;;;2.77;;
20772;SDS011;10546;50.674;4.616;2023-04-25T16:36:09;6.33;;;2.80;;
20772;SDS011;10546;50.674;4.616;2023-04-25T16:38:37;5.03;;;2.20;;
20772;SDS011;10546;50.674;4.616;2023-04-25T16:41:03;11.57;;;3.97;;
20772;SDS011;10546;50.674;4.616;2023-04-25T16:43:30;9.47;;;2.50;;
20772;SDS011;10546;50.674;4.616;2023-04-25T16:45:56;3.53;;;1.77;;
20772;SDS011;10546;50.674;4.616;2023-04-25T16:48:22;5.37;;;2.07;;
20772;SDS011;10546;50.674;4.616;2023-04-25T16:50:51;7.40;;;1.77;;
20772;SDS011;10546;50.674;4.616;2023-04-25T16:53:17;7.67;;;1.80;;
20772;SDS011;10546;50.674;4.616;2023-04-25T16:55:44;8.23;;;2.40;;
20772;SDS011;10546;50.674;4.616;2023-04-25T16:58:11;8.37;;;1.97;;
20772;SDS011;10546;50.674;4.616;2023-04-25T17:00:38;5.27;;;2.03;;
20772;SDS011;10546;50.674;4.616;2023-04-25T17:03:04;7.60;;;3.13;;
20772;SDS011;10546;50.674;4.616;2023-04-25T17:05:30;5.83;;;2.53;;
20772;SDS011;10546;50.674;4.616;2023-04-25T17:07:56;8.90;;;3.87;;
20772;SDS011;10546;50.674;4.616;2023-04-25T17:10:22;6.73;;;3.57;;
20772;SDS011;10546;50.674;4.616;2023-04-25T17:12:47;9.30;;;3.90;;
20772;SDS011;10546;50.674;4.616;2023-04-25T17:15:13;10.93;;;4.70;;
20772;SDS011;10546;50.674;4.616;2023-04-25T17:17:39;11.00;;;4.73;;
20772;SDS011;10546;50.674;4.616;2023-04-25T17:20:05;12.43;;;5.33;;
20772;SDS011;10546;50.674;4.616;2023-04-25T17:22:35;7.30;;;3.60;;
20772;SDS011;10546;50.674;4.616;2023-04-25T17:25:05;10.10;;;3.20;;
20772;SDS011;10546;50.674;4.616;2023-04-25T17:27:32;4.60;;;2.23;;
20772;SDS011;10546;50.674;4.616;2023-04-25T17:30:00;8.67;;;3.83;;
20772;SDS011;10546;50.674;4.616;2023-04-25T17:32:27;7.43;;;3.37;;
20772;SDS011;10546;50.674;4.616;2023-04-25T17:34:53;11.00;;;4.93;;
20772;SDS011;10546;50.674;4.616;2023-04-25T17:37:19;5.57;;;2.10;;
20772;SDS011;10546;50.674;4.616;2023-04-25T17:39:46;5.60;;;2.73;;
20772;SDS011;10546;50.674;4.616;2023-04-25T17:42:12;6.70;;;2.83;;
20772;SDS011;10546;50.674;4.616;2023-04-25T17:44:38;7.77;;;3.13;;
20772;SDS011;10546;50.674;4.616;2023-04-25T17:47:05;9.03;;;2.60;;
20772;SDS011;10546;50.674;4.616;2023-04-25T17:49:31;15.73;;;4.80;;
20772;SDS011;10546;50.674;4.616;2023-04-25T17:51:57;8.30;;;3.00;;
20772;SDS011;10546;50.674;4.616;2023-04-25T17:54:24;11.87;;;3.30;;
20772;SDS011;10546;50.674;4.616;2023-04-25T17:56:50;5.60;;;2.77;;
20772;SDS011;10546;50.674;4.616;2023-04-25T17:59:15;9.77;;;2.93;;
20772;SDS011;10546;50.674;4.616;2023-04-25T18:01:42;6.57;;;3.20;;
20772;SDS011;10546;50.674;4.616;2023-04-25T18:04:07;5.17;;;2.17;;
20772;SDS011;10546;50.674;4.616;2023-04-25T18:06:33;5.20;;;1.90;;
20772;SDS011;10546;50.674;4.616;2023-04-25T18:09:00;4.20;;;2.57;;
20772;SDS011;10546;50.674;4.616;2023-04-25T18:11:28;5.67;;;2.60;;
20772;SDS011;10546;50.674;4.616;2023-04-25T18:13:54;7.97;;;2.87;;
20772;SDS011;10546;50.674;4.616;2023-04-25T18:16:20;8.13;;;2.37;;
20772;SDS011;10546;50.674;4.616;2023-04-25T18:18:46;8.43;;;2.70;;
20772;SDS011;10546;50.674;4.616;2023-04-25T18:21:19;12.87;;;4.33;;
20772;SDS011;10546;50.674;4.616;2023-04-25T18:23:45;7.07;;;3.20;;
20772;SDS011;10546;50.674;4.616;2023-04-25T18:26:11;12.40;;;4.50;;
20772;SDS011;10546;50.674;4.616;2023-04-25T18:28:37;12.03;;;3.10;;
20772;SDS011;10546;50.674;4.616;2023-04-25T18:31:03;11.27;;;3.40;;
20772;SDS011;10546;50.674;4.616;2023-04-25T18:33:30;14.10;;;3.20;;
20772;SDS011;10546;50.674;4.616;2023-04-25T18:35:56;7.87;;;2.63;;
20772;SDS011;10546;50.674;4.616;2023-04-25T18:38:25;8.00;;;3.17;;
20772;SDS011;10546;50.674;4.616;2023-04-25T18:40:51;7.90;;;2.70;;
20772;SDS011;10546;50.674;4.616;2023-04-25T18:43:16;7.70;;;2.70;;
20772;SDS011;10546;50.674;4.616;2023-04-25T18:45:42;9.27;;;2.37;;
20772;SDS011;10546;50.674;4.616;2023-04-25T18:48:08;6.27;;;2.93;;
20772;SDS011;10546;50.674;4.616;2023-04-25T18:50:33;11.33;;;2.97;;
20772;SDS011;10546;50.674;4.616;2023-04-25T18:52:59;10.03;;;3.47;;
20772;SDS011;10546;50.674;4.616;2023-04-25T18:55:27;9.73;;;3.47;;
20772;SDS011;10546;50.674;4.616;2023-04-25T18:57:53;9.43;;;2.60;;
20772;SDS011;10546;50.674;4.616;2023-04-25T19:00:19;7.37;;;2.37;;
20772;SDS011;10546;50.674;4.616;2023-04-25T19:02:45;9.00;;;2.47;;
20772;SDS011;10546;50.674;4.616;2023-04-25T19:05:11;4.10;;;2.07;;
20772;SDS011;10546;50.674;4.616;2023-04-25T19:07:37;12.63;;;4.27;;
20772;SDS011;10546;50.674;4.616;2023-04-25T19:10:04;12.93;;;6.67;;
20772;SDS011;10546;50.674;4.616;2023-04-25T19:12:30;8.83;;;2.90;;
20772;SDS011;10546;50.674;4.616;2023-04-25T19:14:57;14.03;;;3.30;;
20772;SDS011;10546;50.674;4.616;2023-04-25T19:17:23;12.60;;;3.60;;
20772;SDS011;10546;50.674;4.616;2023-04-25T19:19:48;11.93;;;2.60;;
20772;SDS011;10546;50.674;4.616;2023-04-25T19:22:14;9.07;;;3.57;;
20772;SDS011;10546;50.674;4.616;2023-04-25T19:24:40;11.17;;;3.60;;
20772;SDS011;10546;50.674;4.616;2023-04-25T19:27:06;6.83;;;3.00;;
20772;SDS011;10546;50.674;4.616;2023-04-25T19:29:31;5.30;;;2.10;;
20772;SDS011;10546;50.674;4.616;2023-04-25T19:31:58;12.37;;;3.17;;
20772;SDS011;10546;50.674;4.616;2023-04-25T19:34:24;10.63;;;3.20;;
20772;SDS011;10546;50.674;4.616;2023-04-25T19:36:50;14.07;;;6.37;;
20772;SDS011;10546;50.674;4.616;2023-04-25T19:39:18;8.23;;;4.07;;
20772;SDS011;10546;50.674;4.616;2023-04-25T19:41:44;11.47;;;2.90;;
20772;SDS011;10546;50.674;4.616;2023-04-25T19:44:10;7.27;;;2.73;;
20772;SDS011;10546;50.674;4.616;2023-04-25T19:46:36;6.43;;;3.07;;
20772;SDS011;10546;50.674;4.616;2023-04-25T19:49:02;8.47;;;2.50;;
20772;SDS011;10546;50.674;4.616;2023-04-25T19:51:31;9.80;;;4.33;;
20772;SDS011;10546;50.674;4.616;2023-04-25T19:53:58;10.83;;;2.87;;
20772;SDS011;10546;50.674;4.616;2023-04-25T19:56:24;5.30;;;2.10;;
20772;SDS011;10546;50.674;4.616;2023-04-25T19:58:50;7.07;;;2.60;;
20772;SDS011;10546;50.674;4.616;2023-04-25T20:01:16;11.10;;;2.80;;
20772;SDS011;10546;50.674;4.616;2023-04-25T20:03:42;6.77;;;2.83;;
20772;SDS011;10546;50.674;4.616;2023-04-25T20:06:08;9.97;;;3.77;;
20772;SDS011;10546;50.674;4.616;2023-04-25T20:08:35;9.63;;;4.47;;
20772;SDS011;10546;50.674;4.616;2023-04-25T20:11:01;10.93;;;2.43;;
20772;SDS011;10546;50.674;4.616;2023-04-25T20:13:27;5.40;;;2.70;;
20772;SDS011;10546;50.674;4.616;2023-04-25T20:15:53;6.87;;;2.50;;
20772;SDS011;10546;50.674;4.616;2023-04-25T20:18:19;4.93;;;2.73;;